Time;durP1;ratioP1;P1;durP2;ratioP2;P2;SDS_P1;SDS_P2;PMS_P1;PMS_P2;Temp;Humidity;BMP_temperature;BMP_pressure;BME280_temperature;BME280_humidity;BME280_pressure;Samples;Min_cycle;Max_cycle;Signal;HPM_P1;HPM_P2
2021/05/13 00:00:20;;;;;;;2.70;1.40;;;;;;;27.85;31.90;95906.09;5031713;28;20035;-31
2021/05/13 00:02:46;;;;;;;2.42;1.10;;;;;;;27.85;32.02;95916.63;5031503;28;20033;-30
2021/05/13 00:05:12;;;;;;;2.08;1.10;;;;;;;27.85;31.89;95906.09;5027273;28;20028;-30
2021/05/13 00:07:37;;;;;;;4.15;1.20;;;;;;;27.85;31.83;95908.72;5024782;28;20078;-29
2021/05/13 00:10:08;;;;;;;2.03;1.13;;;;;;;27.85;31.70;95908.72;5025867;28;20675;-31
2021/05/13 00:12:39;;;;;;;5.47;1.40;;;;;;;27.85;31.89;95910.50;5024702;28;20040;-28
2021/05/13 00:15:13;;;;;;;2.15;1.15;;;;;;;27.85;31.91;95900.84;5025088;28;20032;-28
2021/05/13 00:17:39;;;;;;;2.50;1.00;;;;;;;27.85;31.97;95905.25;5026433;28;20030;-27
2021/05/13 00:20:09;;;;;;;1.80;1.05;;;;;;;27.84;31.98;95899.13;5019435;28;20040;-27
2021/05/13 00:22:34;;;;;;;3.38;1.00;;;;;;;27.84;31.89;95898.31;5031888;28;20029;-28
2021/05/13 00:25:00;;;;;;;2.05;1.00;;;;;;;27.84;31.92;95899.13;5025236;28;20034;-30
2021/05/13 00:27:26;;;;;;;2.65;1.00;;;;;;;27.84;31.74;95895.69;5027962;28;20423;-28
2021/05/13 00:29:51;;;;;;;3.42;1.27;;;;;;;27.84;31.78;95893.88;5026596;28;20116;-29
2021/05/13 00:32:16;;;;;;;3.42;1.42;;;;;;;27.84;31.87;95888.59;5024335;28;20066;-28
2021/05/13 00:34:42;;;;;;;2.33;1.10;;;;;;;27.84;31.83;95885.16;5034082;28;20036;-29
2021/05/13 00:37:07;;;;;;;2.78;1.10;;;;;;;27.84;31.59;95887.78;5034059;28;20446;-27
2021/05/13 00:39:32;;;;;;;2.00;1.20;;;;;;;27.83;31.74;95881.66;5020582;28;20037;-28
2021/05/13 00:41:58;;;;;;;2.08;1.17;;;;;;;27.83;31.58;95881.66;5020475;28;20551;-29
2021/05/13 00:44:23;;;;;;;2.08;0.98;;;;;;;27.81;31.70;95880.97;5028316;28;20045;-30
2021/05/13 00:46:49;;;;;;;2.22;0.95;;;;;;;27.82;31.75;95877.38;5011363;28;20020;-27
2021/05/13 00:49:16;;;;;;;1.77;1.00;;;;;;;27.82;31.72;95879.16;5028436;28;20033;-29
2021/05/13 00:51:42;;;;;;;6.95;1.33;;;;;;;27.82;31.76;95885.25;5024438;28;20154;-27
2021/05/13 00:54:07;;;;;;;2.65;1.30;;;;;;;27.82;31.72;95872.09;5018034;28;20013;-28
2021/05/13 00:56:32;;;;;;;2.03;0.90;;;;;;;27.82;31.75;95874.72;5011185;28;20075;-28
2021/05/13 00:59:02;;;;;;;2.30;0.98;;;;;;;27.81;31.63;95878.31;5030999;28;20086;-28
2021/05/13 01:01:48;;;;;;;2.45;1.00;;;;;;;27.82;31.59;95880.00;5018518;28;20040;-27
2021/05/13 01:04:15;;;;;;;2.03;0.93;;;;;;;27.81;31.73;95880.97;5033117;28;20144;-28
2021/05/13 01:06:41;;;;;;;2.10;1.13;;;;;;;27.82;31.59;95879.16;5031006;28;20040;-30
2021/05/13 01:09:10;;;;;;;1.65;1.10;;;;;;;27.81;31.71;95877.47;5030920;28;20043;-31
2021/05/13 01:11:38;;;;;;;1.15;0.80;;;;;;;27.80;31.73;95870.53;5035160;28;20028;-31
2021/05/13 01:14:18;;;;;;;3.33;1.20;;;;;;;27.80;31.67;95881.88;5035169;28;20013;-29
2021/05/13 01:17:03;;;;;;;1.85;0.93;;;;;;;27.79;31.59;95885.50;5036729;28;20036;-30
2021/05/13 01:19:29;;;;;;;2.08;1.02;;;;;;;27.79;31.77;95880.22;5035372;28;20128;-30
2021/05/13 01:21:55;;;;;;;1.80;0.95;;;;;;;27.79;31.74;95880.22;5035356;28;20483;-29
2021/05/13 01:24:20;;;;;;;3.67;1.30;;;;;;;27.78;31.53;95878.56;5033980;28;20063;-28
2021/05/13 01:26:46;;;;;;;1.13;0.80;;;;;;;27.79;31.65;95874.97;5035497;28;20017;-27
2021/05/13 01:29:13;;;;;;;1.80;1.00;;;;;;;27.78;31.64;95879.41;5032802;28;20029;-29
2021/05/13 01:31:38;;;;;;;1.05;0.90;;;;;;;27.78;31.63;95882.03;5018255;28;20695;-30
2021/05/13 01:34:05;;;;;;;1.45;0.82;;;;;;;27.77;31.59;95876.88;5025281;28;20065;-30
2021/05/13 01:36:31;;;;;;;1.45;1.05;;;;;;;27.78;31.64;95873.28;5035284;28;20716;-29
2021/05/13 01:38:57;;;;;;;1.48;1.10;;;;;;;27.78;31.52;95875.91;5028645;28;20048;-28
2021/05/13 01:41:22;;;;;;;1.65;1.10;;;;;;;27.78;31.51;95874.13;5033549;28;20037;-29
2021/05/13 01:43:48;;;;;;;2.03;1.00;;;;;;;27.77;31.63;95867.16;5033675;28;20034;-30
2021/05/13 01:46:14;;;;;;;3.42;1.40;;;;;;;27.77;31.59;95872.44;5035657;28;20037;-28
2021/05/13 01:48:40;;;;;;;1.77;0.90;;;;;;;27.78;31.54;95878.56;5032256;28;20574;-28
2021/05/13 01:51:05;;;;;;;1.10;0.80;;;;;;;27.77;31.46;95880.34;5038920;28;20028;-28
2021/05/13 01:53:30;;;;;;;2.40;1.10;;;;;;;27.76;31.43;95869.91;5035466;28;20024;-29
2021/05/13 01:55:56;;;;;;;2.38;0.90;;;;;;;27.77;31.28;95871.63;5027294;28;20033;-30
2021/05/13 01:58:21;;;;;;;1.30;0.90;;;;;;;27.76;31.57;95868.13;5031894;28;20635;-29
2021/05/13 02:00:48;;;;;;;1.60;1.08;;;;;;;27.76;31.47;95867.28;5002967;28;20045;-27
2021/05/13 02:03:13;;;;;;;2.17;1.05;;;;;;;27.76;31.51;95864.66;5006167;28;20078;-30
2021/05/13 02:05:38;;;;;;;2.25;1.10;;;;;;;27.76;31.39;95862.03;5034381;28;20028;-30
2021/05/13 02:08:04;;;;;;;3.45;1.00;;;;;;;27.75;31.59;95857.72;5032292;28;20030;-30
2021/05/13 02:10:30;;;;;;;0.90;0.80;;;;;;;27.75;31.44;95862.97;5031169;28;20103;-29
2021/05/13 02:12:56;;;;;;;2.13;1.00;;;;;;;27.75;31.36;95857.72;5027094;28;20012;-29
2021/05/13 02:15:22;;;;;;;1.60;0.80;;;;;;;27.75;31.52;95860.34;5035091;28;20102;-30
2021/05/13 02:17:47;;;;;;;1.50;1.08;;;;;;;27.76;31.43;95859.38;5035806;28;20484;-27
2021/05/13 02:20:15;;;;;;;4.47;1.30;;;;;;;27.74;31.54;95856.91;5034135;28;20037;-29
2021/05/13 02:22:40;;;;;;;1.88;1.05;;;;;;;27.74;31.48;95851.63;5030738;28;20029;-27
2021/05/13 02:25:06;;;;;;;0.80;0.80;;;;;;;27.74;31.49;95851.63;5026553;28;20035;-32
2021/05/13 02:27:32;;;;;;;0.93;0.70;;;;;;;27.74;31.37;95850.78;5032552;28;20041;-29
2021/05/13 02:29:57;;;;;;;2.92;1.00;;;;;;;27.73;31.52;95843.84;5038033;28;20081;-27
2021/05/13 02:32:23;;;;;;;1.77;1.05;;;;;;;27.74;31.39;95841.09;5031694;28;20411;-31
2021/05/13 02:34:48;;;;;;;1.60;0.80;;;;;;;27.73;31.37;95835.94;5035757;28;20036;-28
2021/05/13 02:37:13;;;;;;;4.35;1.02;;;;;;;27.73;31.50;95833.31;5031450;28;20025;-26
2021/05/13 02:39:39;;;;;;;2.08;0.90;;;;;;;27.73;31.52;95833.31;5029919;28;20025;-26
2021/05/13 02:42:04;;;;;;;1.38;0.90;;;;;;;27.73;31.50;95828.88;5030336;28;20041;-29
2021/05/13 02:44:29;;;;;;;1.45;0.85;;;;;;;27.73;31.33;95822.78;5037998;28;20032;-27
2021/05/13 02:46:55;;;;;;;1.90;1.02;;;;;;;27.73;31.30;95828.06;5031939;28;20033;-31
2021/05/13 02:49:20;;;;;;;2.00;0.80;;;;;;;27.73;31.43;95822.78;5027483;28;20033;-28
2021/05/13 02:51:46;;;;;;;1.08;0.95;;;;;;;27.72;31.34;95831.66;5029421;28;20060;-29
2021/05/13 02:54:11;;;;;;;1.52;0.90;;;;;;;27.72;31.34;95832.47;5031551;28;20018;-28
2021/05/13 02:56:36;;;;;;;1.33;0.80;;;;;;;27.72;31.46;95835.09;5026298;28;20028;-29
2021/05/13 02:59:02;;;;;;;1.40;0.80;;;;;;;27.71;31.39;95830.78;5025537;28;20257;-32
2021/05/13 03:01:30;;;;;;;1.65;0.80;;;;;;;27.72;31.32;95831.66;5026904;28;20482;-29
2021/05/13 03:03:56;;;;;;;1.20;0.70;;;;;;;27.73;31.35;95828.06;5033266;28;20120;-30
2021/05/13 03:06:22;;;;;;;1.00;0.80;;;;;;;27.72;31.45;95831.66;5029901;28;20039;-29
2021/05/13 03:08:55;;;;;;;1.48;0.70;;;;;;;27.71;31.44;95827.31;5033480;28;20814;-28
2021/05/13 03:11:25;;;;;;;1.48;0.70;;;;;;;27.70;31.43;95826.50;5030547;28;21924;-29
2021/05/13 03:13:53;;;;;;;0.95;0.73;;;;;;;27.70;31.40;95831.75;5022146;28;20029;-27
2021/05/13 03:16:18;;;;;;;1.00;0.70;;;;;;;27.70;31.45;95826.50;5017608;28;20116;-28
2021/05/13 03:18:50;;;;;;;1.33;0.70;;;;;;;27.70;31.33;95834.41;5034603;28;20047;-29
2021/05/13 03:21:34;;;;;;;1.33;0.80;;;;;;;27.70;31.35;95823.00;5027986;28;20025;-29
2021/05/13 03:24:18;;;;;;;1.17;0.70;;;;;;;27.70;31.37;95817.75;5032200;28;20049;-30
2021/05/13 03:29:15;;;;;;;2.40;1.05;;;;;;;27.68;31.33;95823.13;5030380;28;20029;-31
2021/05/13 03:31:40;;;;;;;4.10;0.95;;;;;;;27.68;31.32;95830.19;5029166;28;20048;-27
2021/05/13 03:34:06;;;;;;;0.88;0.77;;;;;;;27.67;31.38;95828.50;5029660;28;20076;-26
2021/05/13 03:36:31;;;;;;;3.50;0.77;;;;;;;27.67;31.34;95823.25;5020300;28;20044;-27
2021/05/13 03:38:58;;;;;;;1.48;0.80;;;;;;;27.67;31.38;95828.50;5030341;28;20052;-28
2021/05/13 03:41:23;;;;;;;1.13;0.70;;;;;;;27.67;31.31;95828.50;5027837;28;20036;-30
2021/05/13 03:43:49;;;;;;;1.25;0.80;;;;;;;27.64;31.38;95825.16;5030298;28;20029;-28
2021/05/13 03:46:14;;;;;;;1.05;0.60;;;;;;;27.65;31.23;95821.56;5027980;28;21461;-27
2021/05/13 03:48:39;;;;;;;1.00;0.68;;;;;;;27.65;31.32;95821.56;5023073;28;20099;-30
2021/05/13 03:51:05;;;;;;;1.40;0.60;;;;;;;27.67;31.28;95828.50;5027526;28;20028;-30
2021/05/13 03:53:31;;;;;;;1.05;0.65;;;;;;;27.62;31.39;95816.53;5033229;28;20043;-27
2021/05/13 03:55:56;;;;;;;1.45;0.60;;;;;;;27.64;31.42;95819.91;5029515;28;20249;-26
2021/05/13 03:58:24;;;;;;;1.02;0.80;;;;;;;27.64;31.34;95824.31;5026747;28;20399;-28
2021/05/13 04:03:17;;;;;;;1.40;0.73;;;;;;;27.63;31.18;95818.22;5030594;28;20057;-29
2021/05/13 04:05:43;;;;;;;0.60;0.60;;;;;;;27.63;31.29;95807.69;4997793;28;20427;-30
2021/05/13 04:08:09;;;;;;;1.77;0.73;;;;;;;27.63;31.22;95818.22;5030050;28;20531;-29
2021/05/13 04:10:35;;;;;;;1.10;0.68;;;;;;;27.64;31.29;95817.25;5034333;28;20704;-30
2021/05/13 04:13:03;;;;;;;1.95;0.80;;;;;;;27.64;31.36;95813.78;5001848;28;20342;-30
2021/05/13 04:15:29;;;;;;;1.63;0.93;;;;;;;27.64;31.35;95809.38;5024257;28;20132;-31
2021/05/13 04:17:54;;;;;;;1.38;0.52;;;;;;;27.64;31.05;95798.00;5027483;28;20029;-30
2021/05/13 04:20:20;;;;;;;1.00;0.85;;;;;;;27.64;31.28;95803.25;5030033;28;20710;-36
2021/05/13 04:22:45;;;;;;;1.48;0.75;;;;;;;27.64;31.28;95804.09;5034311;28;20759;-27
2021/05/13 04:25:11;;;;;;;1.15;0.80;;;;;;;27.63;31.24;95807.69;5028743;28;20071;-28
2021/05/13 04:27:36;;;;;;;1.00;0.63;;;;;;;27.63;31.27;95804.22;5031580;28;20032;-30
2021/05/13 04:30:02;;;;;;;1.42;0.70;;;;;;;27.62;31.33;95800.75;5023486;28;20658;-30
2021/05/13 04:32:27;;;;;;;1.40;0.68;;;;;;;27.62;31.36;95808.63;5029093;28;20041;-27
2021/05/13 04:34:53;;;;;;;1.67;0.77;;;;;;;27.62;31.18;95811.25;5027169;28;20110;-28
2021/05/13 04:37:18;;;;;;;0.77;0.60;;;;;;;27.62;31.43;95802.56;5036332;28;20697;-28
2021/05/13 04:39:44;;;;;;;1.90;0.70;;;;;;;27.61;31.33;95804.34;5032474;28;20043;-30
2021/05/13 04:42:09;;;;;;;0.90;0.73;;;;;;;27.59;31.26;95800.13;5029630;28;20025;-31
2021/05/13 04:44:36;;;;;;;0.60;0.55;;;;;;;27.60;31.51;95797.38;5026796;28;20028;-33
2021/05/13 04:47:18;;;;;;;0.88;0.70;;;;;;;27.61;31.32;95793.00;5030901;28;20495;-31
2021/05/13 04:49:43;;;;;;;1.50;0.70;;;;;;;27.61;31.38;95796.44;5020107;28;20616;-28
2021/05/13 04:52:08;;;;;;;1.17;0.70;;;;;;;27.61;31.25;95790.34;5033296;28;20029;-30
2021/05/13 04:54:34;;;;;;;0.88;0.80;;;;;;;27.61;31.38;95793.81;5011799;28;20028;-27
2021/05/13 04:57:01;;;;;;;0.55;0.55;;;;;;;27.60;31.37;95791.25;5031915;28;20777;-26
2021/05/13 04:59:27;;;;;;;0.90;0.70;;;;;;;27.59;31.39;95790.44;5023025;28;20041;-28
2021/05/13 05:01:52;;;;;;;1.05;0.57;;;;;;;27.59;31.36;95787.81;5027026;28;20037;-28
2021/05/13 05:04:18;;;;;;;0.85;0.55;;;;;;;27.59;31.21;95782.53;5028924;28;20040;-30
2021/05/13 05:06:43;;;;;;;2.78;0.80;;;;;;;27.60;31.31;95786.00;5032156;28;20094;-29
2021/05/13 05:09:08;;;;;;;0.98;0.80;;;;;;;27.60;31.18;95786.00;5031017;28;20030;-33
2021/05/13 05:11:34;;;;;;;1.50;0.82;;;;;;;27.60;31.31;95786.84;5034358;28;20028;-31
2021/05/13 05:13:59;;;;;;;1.30;0.60;;;;;;;27.60;31.29;95781.56;5028973;28;20634;-30
2021/05/13 05:16:24;;;;;;;1.00;0.60;;;;;;;27.59;31.16;95782.53;5027678;28;20017;-27
2021/05/13 05:18:51;;;;;;;0.70;0.70;;;;;;;27.60;31.31;95776.31;5026495;28;20534;-30
2021/05/13 05:21:16;;;;;;;1.40;0.80;;;;;;;27.59;31.16;95782.53;5032613;28;20036;-28
2021/05/13 05:23:41;;;;;;;1.00;0.70;;;;;;;27.56;31.17;95780.13;5033740;28;20021;-29
2021/05/13 05:26:07;;;;;;;1.05;0.55;;;;;;;27.60;31.31;95781.56;5033975;28;20208;-33
2021/05/13 05:28:32;;;;;;;0.50;0.50;;;;;;;27.59;31.28;95772.00;5028157;28;20043;-28
2021/05/13 05:30:58;;;;;;;0.98;0.70;;;;;;;27.58;31.25;95778.22;5027087;28;20145;-31
2021/05/13 05:33:23;;;;;;;1.00;0.55;;;;;;;27.60;31.24;95775.47;5029086;28;20024;-30
2021/05/13 05:35:49;;;;;;;0.68;0.60;;;;;;;27.58;31.25;95772.94;5031898;28;20033;-28
2021/05/13 05:38:14;;;;;;;1.15;0.50;;;;;;;27.58;31.28;95772.13;5031817;28;20034;-34
2021/05/13 05:40:40;;;;;;;0.90;0.82;;;;;;;27.58;31.23;95772.13;5032939;28;20533;-27
2021/05/13 05:43:05;;;;;;;2.13;0.80;;;;;;;27.59;31.17;95774.66;5025588;28;20620;-29
2021/05/13 05:45:31;;;;;;;0.90;0.70;;;;;;;27.60;31.37;95775.47;5032498;28;20412;-28
2021/05/13 05:47:59;;;;;;;0.70;0.60;;;;;;;27.59;31.16;95769.38;5034078;28;20037;-28
2021/05/13 05:50:28;;;;;;;1.33;0.98;;;;;;;27.60;31.20;95772.84;5032918;28;20032;-29
2021/05/13 05:52:54;;;;;;;0.80;0.60;;;;;;;27.59;31.29;95774.66;5034671;28;20017;-31
2021/05/13 05:55:19;;;;;;;1.30;0.70;;;;;;;27.59;31.23;95772.00;5021003;28;20021;-31
2021/05/13 05:57:45;;;;;;;0.93;0.60;;;;;;;27.59;31.25;95769.38;5029834;28;20029;-30
2021/05/13 06:00:11;;;;;;;1.15;0.65;;;;;;;27.56;31.22;95761.72;5027213;28;20052;-29
2021/05/13 06:02:36;;;;;;;1.58;0.70;;;;;;;27.59;31.34;95764.13;5017099;28;20036;-31
2021/05/13 06:05:02;;;;;;;0.80;0.80;;;;;;;27.58;31.14;95762.41;5019884;28;20029;-29
2021/05/13 06:07:27;;;;;;;1.23;0.50;;;;;;;27.60;31.33;95759.69;5027428;28;21080;-27
2021/05/13 06:09:55;;;;;;;0.90;0.50;;;;;;;27.59;31.15;95763.28;5033753;28;20053;-29
2021/05/13 06:12:20;;;;;;;0.60;0.60;;;;;;;27.59;31.22;95761.50;5032471;28;20029;-27
2021/05/13 06:14:46;;;;;;;0.73;0.70;;;;;;;27.58;31.18;95757.16;5031267;28;20048;-28
2021/05/13 06:17:11;;;;;;;0.75;0.55;;;;;;;27.59;31.23;95763.28;5026040;28;20394;-26
2021/05/13 06:19:37;;;;;;;2.20;0.98;;;;;;;27.59;31.20;95764.13;5024746;28;20032;-27
2021/05/13 06:22:03;;;;;;;0.82;0.60;;;;;;;27.59;31.14;95758.84;5029728;28;20037;-28
2021/05/13 06:24:28;;;;;;;0.98;0.60;;;;;;;27.59;31.27;95764.13;5026821;28;20044;-27
2021/05/13 06:26:55;;;;;;;1.55;0.65;;;;;;;27.59;31.26;95756.22;5031693;28;20256;-32
2021/05/13 06:29:20;;;;;;;1.25;0.50;;;;;;;27.59;31.23;95758.00;5026353;28;20573;-28
2021/05/13 06:31:46;;;;;;;2.53;0.70;;;;;;;27.59;31.20;95769.38;5029653;28;20089;-29
2021/05/13 06:34:11;;;;;;;0.55;0.47;;;;;;;27.60;31.37;95760.53;5030513;28;20032;-31
2021/05/13 06:36:38;;;;;;;1.00;0.80;;;;;;;27.60;31.24;95765.78;5027019;28;20020;-31
2021/05/13 06:39:04;;;;;;;2.58;0.77;;;;;;;27.60;31.29;95760.53;5025992;28;20515;-28
2021/05/13 06:41:30;;;;;;;2.83;1.13;;;;;;;27.60;31.26;95760.53;5022927;28;20083;-29
2021/05/13 06:43:56;;;;;;;1.35;0.80;;;;;;;27.62;31.25;95766.53;5021288;28;20060;-28
2021/05/13 06:46:23;;;;;;;3.38;1.05;;;;;;;27.63;31.35;95764.75;5024131;28;20043;-27
2021/05/13 06:48:48;;;;;;;1.88;0.70;;;;;;;27.63;31.24;95764.75;5020021;28;20671;-27
2021/05/13 06:51:14;;;;;;;3.50;1.10;;;;;;;27.63;31.54;95776.13;5020414;28;20090;-30
2021/05/13 06:53:39;;;;;;;4.60;1.60;;;;;;;27.64;31.27;95762.00;5014625;28;20845;-31
2021/05/13 06:56:04;;;;;;;12.00;1.58;;;;;;;27.67;31.05;95766.19;5023123;28;20526;-27
2021/05/13 06:58:30;;;;;;;2.13;1.02;;;;;;;27.67;30.95;95760.91;5028168;28;20507;-28
2021/05/13 07:00:55;;;;;;;3.20;1.27;;;;;;;27.68;31.14;95761.78;5028546;28;20029;-28
2021/05/13 07:03:21;;;;;;;2.47;1.40;;;;;;;27.69;30.84;95758.19;5030343;28;20036;-29
2021/05/13 07:05:46;;;;;;;3.75;1.30;;;;;;;27.69;30.76;95758.19;5018370;28;20036;-29
2021/05/13 07:08:11;;;;;;;2.70;1.38;;;;;;;27.70;30.80;95754.56;5032272;28;20033;-29
2021/05/13 07:10:37;;;;;;;4.30;1.63;;;;;;;27.69;30.76;95752.91;5017706;28;20029;-30
2021/05/13 07:13:02;;;;;;;3.78;1.60;;;;;;;27.69;30.72;95763.44;5028912;28;20032;-29
2021/05/13 07:15:28;;;;;;;2.70;1.30;;;;;;;27.71;30.67;95758.88;5034554;28;20036;-31
2021/05/13 07:17:53;;;;;;;2.63;1.55;;;;;;;27.71;30.71;95754.47;5029731;28;20028;-28
2021/05/13 07:20:21;;;;;;;2.33;1.15;;;;;;;27.72;30.73;95755.31;5035096;28;20034;-28
2021/05/13 07:22:46;;;;;;;2.97;1.30;;;;;;;27.73;30.65;95759.63;5026398;28;20041;-28
2021/05/13 07:25:12;;;;;;;3.15;1.17;;;;;;;27.73;30.52;95749.09;5029426;28;20556;-28
2021/05/13 07:27:37;;;;;;;3.60;1.25;;;;;;;27.74;30.59;95754.22;5030411;28;20040;-26
2021/05/13 07:30:03;;;;;;;3.55;1.25;;;;;;;27.74;30.54;95750.75;5029901;28;20024;-28
2021/05/13 07:32:28;;;;;;;2.50;1.20;;;;;;;27.75;30.55;95747.16;5031412;28;20041;-29
2021/05/13 07:34:54;;;;;;;4.90;1.10;;;;;;;27.74;30.54;95746.34;5032352;28;20765;-32
2021/05/13 07:37:21;;;;;;;2.67;1.10;;;;;;;27.76;30.46;95749.69;5020913;28;20033;-27
2021/05/13 07:39:47;;;;;;;3.38;1.23;;;;;;;27.77;30.62;95751.34;5024383;28;20667;-29
2021/05/13 07:42:12;;;;;;;3.33;1.45;;;;;;;27.78;30.47;95747.78;5021050;28;20032;-29
2021/05/13 07:44:38;;;;;;;2.58;1.25;;;;;;;27.79;30.57;95748.59;5024677;28;20037;-27
2021/05/13 07:47:03;;;;;;;3.72;1.05;;;;;;;27.81;30.54;95740.59;5020399;28;20545;-27
2021/05/13 07:49:32;;;;;;;4.82;1.05;;;;;;;27.81;30.46;95745.84;5025374;28;20033;-31
2021/05/13 07:51:57;;;;;;;2.22;1.05;;;;;;;27.82;30.33;95739.63;5028120;28;20049;-31
2021/05/13 07:54:23;;;;;;;2.67;1.20;;;;;;;27.82;30.33;95743.09;5021647;28;20029;-28
2021/05/13 07:56:48;;;;;;;3.08;1.40;;;;;;;27.83;30.33;95752.66;5022447;28;20952;-30
2021/05/13 07:59:14;;;;;;;4.55;1.13;;;;;;;27.84;30.25;95751.69;5031862;28;20582;-29
2021/05/13 08:01:39;;;;;;;2.30;1.40;;;;;;;27.84;30.33;95746.44;5027295;28;20048;-29
2021/05/13 08:04:05;;;;;;;3.00;1.33;;;;;;;27.86;30.18;95738.41;5031325;28;20036;-32
2021/05/13 08:06:30;;;;;;;2.33;1.20;;;;;;;27.87;30.08;95735.66;5019421;28;20566;-29
2021/05/13 08:08:55;;;;;;;11.95;1.90;;;;;;;27.86;29.31;95725.25;5025041;28;20811;-26
2021/05/13 08:11:21;;;;;;;5.75;1.50;;;;;;;27.83;28.55;95739.50;5034272;28;20034;-28
2021/05/13 08:13:46;;;;;;;5.30;1.45;;;;;;;27.78;27.89;95736.41;5035068;28;20132;-28
2021/05/13 08:16:12;;;;;;;5.55;1.80;;;;;;;27.70;27.05;95734.38;5026822;28;20032;-30
2021/05/13 08:18:37;;;;;;;4.72;1.60;;;;;;;27.56;25.91;95734.56;5029049;28;20045;-27
2021/05/13 08:21:03;;;;;;;5.95;1.50;;;;;;;27.40;25.54;95730.47;5032440;28;20033;-27
2021/05/13 08:23:28;;;;;;;3.03;1.40;;;;;;;27.22;25.46;95730.94;5036000;28;20025;-26
2021/05/13 08:25:53;;;;;;;9.55;2.00;;;;;;;27.06;25.32;95736.50;5027437;28;20078;-28
2021/05/13 08:28:19;;;;;;;5.75;1.42;;;;;;;26.93;25.64;95730.47;5030429;28;20056;-28
2021/05/13 08:30:44;;;;;;;5.00;1.27;;;;;;;26.79;25.10;95724.44;5023563;28;20773;-31
2021/05/13 08:33:10;;;;;;;5.97;1.38;;;;;;;26.67;25.27;95722.72;5024209;28;20028;-31
2021/05/13 08:35:35;;;;;;;5.68;1.70;;;;;;;26.57;25.69;95720.78;5028162;28;20025;-28
2021/05/13 08:38:01;;;;;;;6.13;1.83;;;;;;;26.51;26.21;95720.38;5023711;28;20025;-30
2021/05/13 08:40:26;;;;;;;6.13;1.30;;;;;;;26.49;26.44;95717.88;5024370;28;20043;-32
2021/05/13 08:42:51;;;;;;;6.55;1.75;;;;;;;26.50;26.82;95721.34;5031634;28;20592;-32
2021/05/13 08:45:17;;;;;;;4.78;1.23;;;;;;;26.53;26.87;95713.22;5032847;28;20021;-33
2021/05/13 08:47:46;;;;;;;7.90;1.33;;;;;;;26.56;27.22;95724.38;5023474;28;20028;-29
2021/05/13 08:50:13;;;;;;;2.50;1.17;;;;;;;26.61;27.23;95719.59;5015225;28;20029;-33
2021/05/13 08:52:38;;;;;;;11.85;1.80;;;;;;;26.67;27.49;95714.84;5028427;28;20012;-29
2021/05/13 08:55:05;;;;;;;5.55;1.27;;;;;;;26.72;27.54;95715.34;5034403;28;20107;-28
2021/05/13 08:57:30;;;;;;;5.40;1.55;;;;;;;26.76;27.83;95708.09;5033999;28;20021;-32
2021/05/13 08:59:56;;;;;;;5.30;1.60;;;;;;;26.82;27.90;95718.13;5029878;28;20033;-29
2021/05/13 09:02:22;;;;;;;6.05;1.80;;;;;;;26.86;27.89;95716.94;5033375;28;20070;-30
2021/05/13 09:04:48;;;;;;;8.82;1.95;;;;;;;26.91;28.02;95716.59;5038458;28;20063;-30
2021/05/13 09:07:17;;;;;;;8.52;1.92;;;;;;;26.95;28.10;95712.81;5038113;28;20040;-30
2021/05/13 09:10:03;;;;;;;7.72;2.03;;;;;;;26.99;28.28;95714.25;5034770;28;20032;-32
2021/05/13 09:12:34;;;;;;;7.35;2.00;;;;;;;27.03;28.29;95709.63;5036990;28;20140;-32
2021/05/13 09:15:06;;;;;;;9.03;2.03;;;;;;;27.06;28.28;95704.97;5034512;28;20025;-32
2021/05/13 09:17:31;;;;;;;8.48;2.08;;;;;;;27.09;28.40;95702.09;5039414;28;20086;-31
2021/05/13 09:19:56;;;;;;;10.10;2.20;;;;;;;27.10;28.39;95695.88;5033579;28;20685;-31
2021/05/13 09:22:24;;;;;;;11.43;2.10;;;;;;;27.15;28.39;95694.69;5037991;28;20035;-30
2021/05/13 09:25:18;;;;;;;7.95;2.13;;;;;;;27.19;28.52;95690.88;5040096;28;20036;-31
2021/05/13 09:27:45;;;;;;;8.50;2.30;;;;;;;27.18;28.58;95686.56;5024845;28;20655;-30
2021/05/13 09:30:23;;;;;;;9.05;2.40;;;;;;;27.23;28.63;95695.78;5035888;28;20594;-34
2021/05/13 09:32:51;;;;;;;9.43;2.63;;;;;;;27.24;28.68;95697.44;5038872;28;20074;-28
2021/05/13 09:35:17;;;;;;;9.85;2.28;;;;;;;27.26;28.90;95695.56;5039454;28;20712;-29
2021/05/13 09:38:01;;;;;;;11.90;2.72;;;;;;;27.28;28.82;95698.06;5033204;28;20128;-31
2021/05/13 09:40:52;;;;;;;7.40;2.53;;;;;;;27.31;28.77;95700.44;5035435;28;20654;-30
2021/05/13 09:43:21;;;;;;;8.80;2.30;;;;;;;27.33;28.89;95700.34;5034566;28;20029;-32
2021/05/13 09:45:54;;;;;;;7.70;2.22;;;;;;;27.34;28.87;95702.03;5033512;28;20629;-29
2021/05/13 09:48:40;;;;;;;8.40;2.10;;;;;;;27.36;28.88;95706.22;5039182;28;20033;-32
2021/05/13 09:51:27;;;;;;;7.60;2.45;;;;;;;27.38;28.94;95699.03;5036863;28;20029;-31
2021/05/13 09:54:12;;;;;;;7.45;2.25;;;;;;;27.40;28.96;95706.81;5031495;28;20155;-28
2021/05/13 09:56:41;;;;;;;8.25;2.40;;;;;;;27.42;29.05;95704.06;5029647;28;20052;-30
2021/05/13 09:59:34;;;;;;;8.50;2.60;;;;;;;27.42;29.02;95704.88;5032340;28;20483;-30
2021/05/13 10:02:02;;;;;;;9.02;2.55;;;;;;;27.45;29.04;95709.06;5034137;28;20059;-31
2021/05/13 10:04:28;;;;;;;6.70;2.40;;;;;;;27.47;29.06;95717.69;5033406;28;20021;-30
2021/05/13 10:06:53;;;;;;;14.52;2.45;;;;;;;27.47;29.20;95723.81;5032624;28;20043;-31
2021/05/13 10:09:19;;;;;;;8.52;2.70;;;;;;;27.48;29.00;95724.63;5030134;28;20037;-31
2021/05/13 10:11:55;;;;;;;6.78;2.50;;;;;;;27.51;29.24;95732.28;5022690;28;20260;-31
2021/05/13 10:14:21;;;;;;;5.35;2.20;;;;;;;27.51;29.30;95729.66;5035486;28;20998;-29
2021/05/13 10:16:53;;;;;;;6.13;2.35;;;;;;;27.53;29.25;95739.09;5035356;28;20041;-29
2021/05/13 10:19:25;;;;;;;6.50;2.25;;;;;;;27.55;29.19;95732.88;5035486;28;20293;-32
2021/05/13 10:21:50;;;;;;;9.38;2.13;;;;;;;27.56;29.17;95730.13;5024001;28;20044;-32
2021/05/13 10:24:15;;;;;;;4.43;1.90;;;;;;;27.58;29.33;95728.22;5008798;28;20037;-32
2021/05/13 10:26:45;;;;;;;10.32;2.40;;;;;;;27.59;29.46;95729.06;5033994;28;20571;-29
2021/05/13 10:29:20;;;;;;;5.70;1.90;;;;;;;27.60;29.40;95717.56;5036533;28;20084;-29
2021/05/13 10:31:45;;;;;;;4.93;1.90;;;;;;;27.61;29.41;95720.13;5036046;28;20139;-31
2021/05/13 10:34:11;;;;;;;8.15;2.40;;;;;;;27.62;29.50;95710.44;5024473;28;20377;-33
2021/05/13 10:36:36;;;;;;;6.78;2.30;;;;;;;27.62;29.41;95711.25;5034318;28;20029;-29
2021/05/13 10:39:09;;;;;;;6.45;2.05;;;;;;;27.64;29.54;95708.50;5034699;28;20036;-28
2021/05/13 10:41:39;;;;;;;5.25;2.15;;;;;;;27.64;29.51;95703.25;5034480;28;20016;-31
2021/05/13 10:44:07;;;;;;;5.75;2.00;;;;;;;27.64;29.54;95704.09;5034442;28;20033;-29
2021/05/13 10:46:32;;;;;;;5.43;2.03;;;;;;;27.65;29.53;95708.41;5036853;28;20044;-30
2021/05/13 10:49:17;;;;;;;6.70;2.30;;;;;;;27.68;29.46;95704.69;5034952;28;20177;-31
2021/05/13 10:51:43;;;;;;;5.65;1.98;;;;;;;27.69;29.60;95710.78;5033671;28;20064;-31
2021/05/13 10:54:08;;;;;;;3.78;1.73;;;;;;;27.70;29.67;95707.19;5037922;28;20028;-33
2021/05/13 10:56:35;;;;;;;4.22;2.00;;;;;;;27.70;29.54;95712.47;5035561;28;20028;-31
2021/05/13 10:59:05;;;;;;;5.45;1.73;;;;;;;27.71;29.69;95709.72;5034918;28;20681;-30
2021/05/13 11:01:50;;;;;;;4.75;1.70;;;;;;;27.73;29.68;95712.25;5031732;28;20079;-32
2021/05/13 11:07:14;;;;;;;4.95;1.65;;;;;;;27.73;29.75;95714.88;5034066;28;20040;-30
2021/05/13 11:12:05;;;;;;;4.00;1.85;;;;;;;27.75;29.60;95715.56;5034121;28;20029;-33
2021/05/13 11:14:31;;;;;;;5.35;1.83;;;;;;;27.77;29.62;95724.19;5031901;28;20047;-29
2021/05/13 11:16:57;;;;;;;5.43;2.05;;;;;;;27.77;29.78;95732.09;5035005;28;20819;-30
2021/05/13 11:19:24;;;;;;;6.45;1.95;;;;;;;27.76;29.77;95723.34;5031897;28;20806;-29
2021/05/13 11:21:57;;;;;;;5.35;1.55;;;;;;;27.77;29.78;95711.84;5036848;28;20654;-29
2021/05/13 11:24:22;;;;;;;5.13;1.80;;;;;;;27.79;29.63;95717.00;5034675;28;20066;-30
2021/05/13 11:26:55;;;;;;;4.18;1.80;;;;;;;27.79;29.78;95709.09;5032428;28;20055;-30
2021/05/13 11:29:20;;;;;;;3.67;1.55;;;;;;;27.79;29.84;95706.47;5029260;28;20028;-31
2021/05/13 11:31:49;;;;;;;3.40;1.55;;;;;;;27.80;29.89;95708.16;5035353;28;20121;-30
2021/05/13 11:34:15;;;;;;;3.88;1.30;;;;;;;27.81;29.74;95709.84;5034804;28;20017;-33
2021/05/13 11:36:41;;;;;;;3.25;1.50;;;;;;;27.82;29.74;95700.97;5005112;28;20574;-30
2021/05/13 11:39:10;;;;;;;4.53;1.70;;;;;;;27.83;29.77;95701.81;5035394;28;20040;-32
2021/05/13 11:41:36;;;;;;;5.05;1.70;;;;;;;27.82;29.86;95700.13;5033206;28;20598;-30
2021/05/13 11:44:01;;;;;;;2.83;1.27;;;;;;;27.82;29.88;95695.72;5030285;28;20028;-31